Time;durP1;ratioP1;P1;durP2;ratioP2;P2;SDS_P1;SDS_P2;PMS_P1;PMS_P2;Temp;Humidity;BMP_temperature;BMP_pressure;BME280_temperature;BME280_humidity;BME280_pressure;Samples;Min_cycle;Max_cycle;Signal;HPM_P1;HPM_P2
2022/01/07 00:01:35;;;;;;;2.85;1.85;;;9.40;63.60;;;;;;5092957;28;20032;-88
2022/01/07 00:04:02;;;;;;;2.15;1.90;;;9.40;63.50;;;;;;5077873;28;20036;-89
2022/01/07 00:06:28;;;;;;;2.85;2.05;;;9.40;63.60;;;;;;5061375;28;20040;-89
2022/01/07 00:08:54;;;;;;;2.30;1.90;;;9.40;63.60;;;;;;5077911;28;20714;-89
2022/01/07 00:11:20;;;;;;;2.30;1.63;;;9.40;63.60;;;;;;5059369;28;20036;-88
2022/01/07 00:13:46;;;;;;;2.05;1.40;;;9.40;63.60;;;;;;5061304;28;20032;-90
2022/01/07 00:16:12;;;;;;;1.60;1.33;;;9.40;63.40;;;;;;5076167;28;20036;-90
2022/01/07 00:18:44;;;;;;;1.58;1.40;;;9.40;63.40;;;;;;5063407;28;20031;-88
2022/01/07 00:21:11;;;;;;;1.50;1.23;;;9.40;63.40;;;;;;5077361;28;20028;-88
2022/01/07 00:23:37;;;;;;;1.58;1.10;;;9.40;63.30;;;;;;5067402;28;20045;-87
2022/01/07 00:26:04;;;;;;;1.50;1.40;;;9.40;63.30;;;;;;5079433;28;20490;-87
2022/01/07 00:28:30;;;;;;;2.25;1.30;;;9.40;63.10;;;;;;5060889;28;20051;-89
2022/01/07 00:30:56;;;;;;;1.10;1.00;;;9.40;63.00;;;;;;5084508;28;20118;-89
2022/01/07 00:33:22;;;;;;;2.33;0.98;;;9.40;63.00;;;;;;5065460;28;20074;-89
2022/01/07 00:35:48;;;;;;;1.08;0.90;;;9.40;62.70;;;;;;5060935;28;20029;-88
2022/01/07 00:38:14;;;;;;;1.92;1.10;;;9.40;63.30;;;;;;5088868;28;20021;-88
2022/01/07 00:40:40;;;;;;;1.65;1.10;;;9.30;62.80;;;;;;5087397;28;20414;-90
2022/01/07 00:43:06;;;;;;;0.70;0.70;;;9.40;62.80;;;;;;5093578;28;20056;-88
2022/01/07 00:45:33;;;;;;;1.00;0.90;;;9.40;62.80;;;;;;5095685;28;20031;-88
2022/01/07 00:47:59;;;;;;;0.77;0.77;;;9.40;62.60;;;;;;5087964;28;20122;-88
2022/01/07 00:50:27;;;;;;;0.77;0.77;;;9.40;62.40;;;;;;5083003;28;20139;-88
2022/01/07 00:52:53;;;;;;;0.50;0.50;;;9.40;62.20;;;;;;5085205;28;20554;-88
2022/01/07 00:55:19;;;;;;;1.58;0.68;;;9.30;62.10;;;;;;5085024;28;20032;-87
2022/01/07 00:57:46;;;;;;;1.20;0.70;;;9.30;62.00;;;;;;5085689;28;20028;-87
2022/01/07 01:00:14;;;;;;;0.60;0.60;;;9.40;62.00;;;;;;5088712;28;20047;-88
2022/01/07 01:02:40;;;;;;;0.57;0.57;;;9.30;62.00;;;;;;5084505;28;20574;-89
2022/01/07 01:05:09;;;;;;;0.95;0.70;;;9.30;62.00;;;;;;5088450;28;20032;-88
2022/01/07 01:07:34;;;;;;;0.70;0.57;;;9.40;61.90;;;;;;5084318;28;20031;-86
2022/01/07 01:10:01;;;;;;;0.50;0.50;;;9.30;61.90;;;;;;5067089;28;20444;-89
2022/01/07 01:12:27;;;;;;;1.23;0.70;;;9.30;61.90;;;;;;5067204;28;20044;-87
2022/01/07 01:14:53;;;;;;;0.55;0.52;;;9.30;61.80;;;;;;5083068;28;20473;-88
2022/01/07 01:17:19;;;;;;;1.17;0.50;;;9.30;61.80;;;;;;5087142;28;20028;-87
2022/01/07 01:19:45;;;;;;;0.95;0.52;;;9.30;61.80;;;;;;5083992;28;20036;-89
2022/01/07 01:22:11;;;;;;;1.17;0.60;;;9.30;61.60;;;;;;5083832;28;20042;-89
2022/01/07 01:24:37;;;;;;;0.68;0.45;;;9.30;61.60;;;;;;5070782;28;20026;-89
2022/01/07 01:27:03;;;;;;;1.38;0.60;;;9.30;61.50;;;;;;5099287;28;20028;-87
2022/01/07 01:29:29;;;;;;;0.73;0.55;;;9.30;61.40;;;;;;5082843;28;20067;-87
2022/01/07 01:31:55;;;;;;;0.50;0.40;;;9.30;61.30;;;;;;5085927;28;20059;-88
2022/01/07 01:34:21;;;;;;;0.47;0.47;;;9.30;61.20;;;;;;5082131;28;20114;-86
2022/01/07 01:36:47;;;;;;;1.05;0.57;;;9.30;61.10;;;;;;5068495;28;20105;-86
2022/01/07 01:39:12;;;;;;;0.68;0.40;;;9.20;61.00;;;;;;5082675;28;20452;-87
2022/01/07 01:41:40;;;;;;;0.52;0.47;;;9.20;60.90;;;;;;5081821;28;20040;-86
2022/01/07 01:44:06;;;;;;;1.10;0.45;;;9.30;61.10;;;;;;5081559;28;20034;-87
2022/01/07 01:46:32;;;;;;;0.45;0.40;;;9.20;60.90;;;;;;5082780;28;20027;-87
2022/01/07 01:48:58;;;;;;;1.00;0.50;;;9.20;60.80;;;;;;5080353;28;20040;-87
2022/01/07 01:51:24;;;;;;;1.13;0.60;;;9.20;60.70;;;;;;5084892;28;20023;-87
2022/01/07 01:53:50;;;;;;;1.30;0.40;;;9.20;60.60;;;;;;5081771;28;20039;-87
2022/01/07 01:56:16;;;;;;;0.40;0.40;;;9.20;60.40;;;;;;5067229;28;20406;-87
2022/01/07 01:58:42;;;;;;;0.57;0.50;;;9.20;60.30;;;;;;5081676;28;20028;-87
2022/01/07 02:01:09;;;;;;;0.45;0.45;;;9.20;60.30;;;;;;5081207;28;20468;-88
2022/01/07 02:03:34;;;;;;;2.10;0.50;;;9.20;60.20;;;;;;5083230;28;20036;-87
2022/01/07 02:06:00;;;;;;;0.73;0.50;;;9.20;60.30;;;;;;5082600;28;20552;-87
2022/01/07 02:08:28;;;;;;;0.95;0.50;;;9.20;60.40;;;;;;5081133;28;20032;-87
2022/01/07 02:10:55;;;;;;;0.47;0.40;;;9.10;60.90;;;;;;5086212;28;20121;-88
2022/01/07 02:13:21;;;;;;;1.13;0.50;;;9.10;60.30;;;;;;5068647;28;20028;-87
2022/01/07 02:15:47;;;;;;;1.30;0.50;;;9.10;60.40;;;;;;5084931;28;20024;-87
2022/01/07 02:18:13;;;;;;;0.30;0.30;;;9.20;60.40;;;;;;5070043;28;20028;-86
2022/01/07 02:20:38;;;;;;;0.60;0.40;;;9.20;60.30;;;;;;5069394;28;20105;-86
2022/01/07 02:23:04;;;;;;;0.40;0.30;;;9.20;60.10;;;;;;5068798;28;20032;-86
2022/01/07 02:25:30;;;;;;;0.40;0.40;;;9.10;60.00;;;;;;5083736;28;20039;-87
2022/01/07 02:27:56;;;;;;;0.75;0.40;;;9.10;59.90;;;;;;5081671;28;20495;-86
2022/01/07 02:30:31;;;;;;;0.93;0.40;;;9.20;60.00;;;;;;5081175;28;20351;-86
2022/01/07 02:32:58;;;;;;;0.80;0.50;;;9.20;60.70;;;;;;5079512;28;20806;-88
2022/01/07 02:35:28;;;;;;;0.35;0.35;;;9.20;60.10;;;;;;5081638;28;20379;-86
2022/01/07 02:37:54;;;;;;;0.50;0.30;;;9.10;60.10;;;;;;5085402;28;22367;-85
2022/01/07 02:40:20;;;;;;;1.05;0.40;;;9.10;59.80;;;;;;5082298;28;20126;-86
2022/01/07 02:42:46;;;;;;;0.40;0.40;;;9.10;59.70;;;;;;5086848;28;20044;-86
2022/01/07 02:45:14;;;;;;;0.82;0.30;;;9.10;59.60;;;;;;5069088;28;20024;-86
2022/01/07 02:50:14;;;;;;;1.67;0.40;;;9.10;59.40;;;;;;5096388;28;20097;-86
2022/01/07 02:52:39;;;;;;;0.82;0.82;;;9.10;59.40;;;;;;5084264;28;20058;-86
2022/01/07 02:55:06;;;;;;;0.50;0.30;;;9.10;59.50;;;;;;5064670;28;20037;-86
2022/01/07 02:57:32;;;;;;;1.00;0.47;;;9.00;59.40;;;;;;5082873;28;20118;-84
2022/01/07 02:59:58;;;;;;;0.55;0.55;;;9.00;59.30;;;;;;5081899;28;20076;-84
2022/01/07 03:02:24;;;;;;;0.80;0.38;;;9.10;59.20;;;;;;5083417;28;20029;-86
2022/01/07 03:04:49;;;;;;;0.20;0.20;;;9.10;59.30;;;;;;5079989;28;20047;-84
2022/01/07 03:07:15;;;;;;;0.80;0.50;;;9.10;59.20;;;;;;5082861;28;20032;-84
2022/01/07 03:09:41;;;;;;;0.47;0.30;;;9.10;59.20;;;;;;5080562;28;20036;-85
2022/01/07 03:12:07;;;;;;;2.60;0.40;;;9.10;59.10;;;;;;5094276;28;20028;-86
2022/01/07 03:14:33;;;;;;;0.30;0.30;;;9.00;58.90;;;;;;5085171;28;20036;-84
2022/01/07 03:16:59;;;;;;;1.27;0.30;;;9.00;58.90;;;;;;5084357;28;20047;-87
2022/01/07 03:19:25;;;;;;;0.40;0.40;;;9.00;58.90;;;;;;5080350;28;20505;-86
2022/01/07 03:21:51;;;;;;;0.85;0.50;;;9.00;58.90;;;;;;5077677;28;20028;-87
2022/01/07 03:24:17;;;;;;;1.63;0.40;;;9.00;58.80;;;;;;5062104;28;20021;-87
2022/01/07 03:26:42;;;;;;;0.60;0.47;;;9.00;58.80;;;;;;5080177;28;20056;-87
2022/01/07 03:29:08;;;;;;;2.17;0.40;;;9.00;58.80;;;;;;5064566;28;20024;-85
2022/01/07 03:31:34;;;;;;;0.50;0.40;;;9.00;58.70;;;;;;5083106;28;20040;-86
2022/01/07 03:34:00;;;;;;;0.68;0.40;;;9.00;58.70;;;;;;5063668;28;20437;-86
2022/01/07 03:36:26;;;;;;;0.77;0.40;;;9.00;58.80;;;;;;5078787;28;20926;-86
2022/01/07 03:38:52;;;;;;;1.70;0.50;;;9.00;58.90;;;;;;5081179;28;20020;-86
2022/01/07 03:41:19;;;;;;;0.50;0.50;;;9.00;59.10;;;;;;5080281;28;20040;-85
2022/01/07 03:43:45;;;;;;;0.60;0.40;;;9.00;59.10;;;;;;5068387;28;20028;-85
2022/01/07 03:46:11;;;;;;;1.90;0.60;;;9.00;59.10;;;;;;5080929;28;20081;-85
2022/01/07 03:48:37;;;;;;;1.30;0.68;;;9.00;59.20;;;;;;5080161;28;20035;-88
2022/01/07 03:51:03;;;;;;;0.82;0.55;;;9.00;59.00;;;;;;5083029;28;20502;-87
2022/01/07 03:53:29;;;;;;;0.60;0.50;;;9.00;59.20;;;;;;5080508;28;20066;-88
2022/01/07 03:55:55;;;;;;;1.15;0.50;;;9.00;59.20;;;;;;5083455;28;20069;-87
2022/01/07 03:58:21;;;;;;;0.57;0.57;;;9.00;59.10;;;;;;5082156;28;20032;-87
2022/01/07 04:00:47;;;;;;;0.40;0.40;;;9.00;59.10;;;;;;5078938;28;20127;-87
2022/01/07 04:03:16;;;;;;;0.52;0.52;;;9.00;59.20;;;;;;5068437;28;20119;-87
2022/01/07 04:05:42;;;;;;;0.85;0.70;;;9.00;59.20;;;;;;5096251;28;20043;-86
2022/01/07 04:08:08;;;;;;;1.70;0.73;;;9.00;59.30;;;;;;5081373;28;20452;-87
2022/01/07 04:10:35;;;;;;;0.50;0.50;;;9.00;59.30;;;;;;5082919;28;20090;-87
2022/01/07 04:13:01;;;;;;;0.95;0.95;;;9.00;59.20;;;;;;5102243;28;20032;-86
2022/01/07 04:15:27;;;;;;;1.13;0.55;;;9.00;59.20;;;;;;5088068;28;20040;-86
2022/01/07 04:17:54;;;;;;;1.38;0.50;;;9.00;59.30;;;;;;5072387;28;20078;-87
2022/01/07 04:20:24;;;;;;;1.42;0.60;;;9.00;59.50;;;;;;5086045;28;20032;-86
2022/01/07 04:22:50;;;;;;;0.75;0.50;;;9.00;59.50;;;;;;5083502;28;20523;-86
2022/01/07 04:25:20;;;;;;;0.95;0.60;;;9.00;60.20;;;;;;5088187;28;20646;-86
2022/01/07 04:27:53;;;;;;;1.15;0.60;;;9.00;59.60;;;;;;5084851;28;20383;-86
2022/01/07 04:30:21;;;;;;;0.70;0.60;;;9.00;59.50;;;;;;5083004;28;20053;-86
2022/01/07 04:32:48;;;;;;;0.95;0.52;;;9.00;59.50;;;;;;5082133;28;20123;-86
2022/01/07 04:35:15;;;;;;;0.50;0.40;;;9.00;59.60;;;;;;5087753;28;20079;-86
2022/01/07 04:37:42;;;;;;;0.65;0.65;;;9.10;59.70;;;;;;5084221;28;20054;-88
2022/01/07 04:40:11;;;;;;;0.73;0.40;;;9.00;59.50;;;;;;5082210;28;20031;-86
2022/01/07 04:42:37;;;;;;;1.73;0.47;;;9.00;59.60;;;;;;5069733;28;20035;-86
2022/01/07 04:45:05;;;;;;;0.40;0.40;;;9.00;59.50;;;;;;5069414;28;20032;-87
2022/01/07 04:47:31;;;;;;;1.27;0.57;;;9.00;59.40;;;;;;5082876;28;20032;-87
2022/01/07 04:49:58;;;;;;;0.50;0.50;;;9.00;59.40;;;;;;5082393;28;20094;-88
2022/01/07 04:52:24;;;;;;;0.40;0.40;;;9.00;59.40;;;;;;5082141;28;20449;-87
2022/01/07 04:54:50;;;;;;;0.50;0.40;;;9.00;59.40;;;;;;5083732;28;20028;-86
2022/01/07 04:57:16;;;;;;;0.35;0.30;;;9.00;59.40;;;;;;5087627;28;20098;-87
2022/01/07 04:59:42;;;;;;;0.85;0.52;;;9.10;59.50;;;;;;5080247;28;20395;-86
2022/01/07 05:02:08;;;;;;;0.90;0.32;;;9.10;59.50;;;;;;5066382;28;20559;-88
2022/01/07 05:04:34;;;;;;;0.73;0.55;;;9.00;59.40;;;;;;5070869;28;20576;-87
2022/01/07 05:06:59;;;;;;;0.40;0.32;;;9.00;59.50;;;;;;5069799;28;20032;-87
2022/01/07 05:09:25;;;;;;;1.45;0.50;;;9.00;59.40;;;;;;5071195;28;20090;-87
2022/01/07 05:11:53;;;;;;;0.43;0.43;;;9.10;59.50;;;;;;5083239;28;20024;-88
2022/01/07 05:14:19;;;;;;;0.40;0.40;;;9.00;59.50;;;;;;5067143;28;20078;-87
2022/01/07 05:16:45;;;;;;;0.47;0.43;;;9.00;59.50;;;;;;5083932;28;20032;-87
2022/01/07 05:19:11;;;;;;;0.50;0.50;;;9.00;59.40;;;;;;5083740;28;20036;-86
2022/01/07 05:21:38;;;;;;;1.45;0.68;;;9.00;59.40;;;;;;5086861;28;20039;-87
2022/01/07 05:24:05;;;;;;;0.98;0.60;;;9.00;59.20;;;;;;5083177;28;20135;-87
2022/01/07 05:26:32;;;;;;;0.63;0.60;;;9.00;59.20;;;;;;5081292;28;20055;-87
2022/01/07 05:28:58;;;;;;;0.50;0.40;;;9.00;59.10;;;;;;5083824;28;20037;-86
2022/01/07 05:31:24;;;;;;;2.55;0.50;;;9.00;59.10;;;;;;5088062;28;20145;-86
2022/01/07 05:33:52;;;;;;;0.40;0.40;;;9.00;59.10;;;;;;5083475;28;20036;-86
2022/01/07 05:36:19;;;;;;;0.43;0.43;;;8.90;58.90;;;;;;5083055;28;20424;-86
2022/01/07 05:38:45;;;;;;;1.13;0.40;;;9.00;58.80;;;;;;5083753;28;20024;-86
2022/01/07 05:41:11;;;;;;;2.83;0.65;;;8.90;58.80;;;;;;5082906;28;20032;-87
2022/01/07 05:43:37;;;;;;;0.85;0.52;;;8.90;58.80;;;;;;5084553;28;20040;-87
2022/01/07 05:46:04;;;;;;;0.43;0.40;;;9.00;58.90;;;;;;5082834;28;20021;-87
2022/01/07 05:48:30;;;;;;;0.80;0.50;;;9.00;58.90;;;;;;5064568;28;20042;-87
2022/01/07 05:50:56;;;;;;;0.52;0.40;;;9.00;58.80;;;;;;5067710;28;20632;-87
2022/01/07 05:53:22;;;;;;;1.33;0.45;;;8.90;58.70;;;;;;5098877;28;20034;-86
2022/01/07 05:55:47;;;;;;;2.45;0.40;;;8.90;58.60;;;;;;5082137;28;20144;-87
2022/01/07 05:58:13;;;;;;;0.40;0.40;;;8.90;58.60;;;;;;5086365;28;20484;-87
2022/01/07 06:00:39;;;;;;;0.30;0.30;;;9.00;58.60;;;;;;5080689;28;20073;-86
2022/01/07 06:03:05;;;;;;;0.45;0.30;;;9.00;58.50;;;;;;5081111;28;20029;-86
2022/01/07 06:05:31;;;;;;;0.65;0.52;;;9.00;58.10;;;;;;5082622;28;20486;-85
2022/01/07 06:07:57;;;;;;;2.05;0.57;;;9.00;57.70;;;;;;5064616;28;20035;-86
2022/01/07 06:10:23;;;;;;;1.15;0.60;;;8.90;57.40;;;;;;5086809;28;20077;-86
2022/01/07 06:12:49;;;;;;;0.68;0.50;;;8.90;56.90;;;;;;5080659;28;20059;-85
2022/01/07 06:15:14;;;;;;;0.52;0.52;;;8.90;56.70;;;;;;5070046;28;21827;-85
2022/01/07 06:17:41;;;;;;;0.38;0.38;;;8.90;57.10;;;;;;5096311;28;20082;-87
2022/01/07 06:20:08;;;;;;;1.05;0.50;;;8.90;56.30;;;;;;5084977;28;20036;-86
2022/01/07 06:22:34;;;;;;;0.63;0.60;;;8.80;56.10;;;;;;5081639;28;20085;-85
2022/01/07 06:25:01;;;;;;;0.40;0.40;;;8.80;56.00;;;;;;5083943;28;20032;-85
2022/01/07 06:27:27;;;;;;;0.60;0.52;;;8.80;55.90;;;;;;5081048;28;20064;-86
2022/01/07 06:29:53;;;;;;;1.35;0.68;;;8.80;56.00;;;;;;5085404;28;20074;-86
2022/01/07 06:32:19;;;;;;;1.45;0.60;;;8.80;55.70;;;;;;5066620;28;20024;-86
2022/01/07 06:34:45;;;;;;;0.40;0.40;;;8.80;55.60;;;;;;5083820;28;20031;-86
2022/01/07 06:37:12;;;;;;;0.40;0.40;;;8.80;55.70;;;;;;5083116;28;20513;-87
2022/01/07 06:39:38;;;;;;;0.50;0.50;;;8.80;55.70;;;;;;5082668;28;20717;-85
2022/01/07 06:42:04;;;;;;;1.33;0.40;;;8.80;55.70;;;;;;5083971;28;20032;-87
2022/01/07 06:44:30;;;;;;;0.55;0.40;;;8.80;55.80;;;;;;5063022;28;20028;-85
2022/01/07 06:46:56;;;;;;;0.70;0.60;;;8.80;55.70;;;;;;5080264;28;20039;-89
2022/01/07 06:49:22;;;;;;;1.17;0.50;;;8.70;55.70;;;;;;5082385;28;20044;-90
2022/01/07 06:51:49;;;;;;;1.30;0.68;;;8.70;55.70;;;;;;5082605;28;20560;-86
2022/01/07 06:54:15;;;;;;;0.73;0.50;;;8.70;55.60;;;;;;5086481;28;20032;-86
2022/01/07 06:56:42;;;;;;;0.90;0.52;;;8.80;55.70;;;;;;5081550;28;20462;-88
2022/01/07 06:59:09;;;;;;;1.35;0.55;;;8.80;55.60;;;;;;5079593;28;20071;-86
2022/01/07 07:01:35;;;;;;;1.63;0.70;;;8.70;55.50;;;;;;5067395;28;20028;-87
2022/01/07 07:04:01;;;;;;;0.88;0.60;;;8.70;55.50;;;;;;5085038;28;20504;-87
2022/01/07 07:06:27;;;;;;;1.33;0.57;;;8.70;55.50;;;;;;5064049;28;20530;-86
2022/01/07 07:08:53;;;;;;;0.73;0.50;;;8.70;55.50;;;;;;5082450;28;20042;-86
2022/01/07 07:11:19;;;;;;;0.75;0.60;;;8.70;55.50;;;;;;5080149;28;20020;-86
2022/01/07 07:13:45;;;;;;;0.70;0.50;;;8.70;55.30;;;;;;5068049;28;20020;-88
2022/01/07 07:16:11;;;;;;;0.50;0.50;;;8.80;55.40;;;;;;5083467;28;20039;-87
2022/01/07 07:18:36;;;;;;;0.55;0.52;;;8.80;55.30;;;;;;5080956;28;20039;-88
2022/01/07 07:21:02;;;;;;;0.98;0.60;;;8.70;55.20;;;;;;5081570;28;20163;-85
2022/01/07 07:23:28;;;;;;;0.95;0.65;;;8.70;55.20;;;;;;5080155;28;20024;-86
2022/01/07 07:25:54;;;;;;;0.65;0.50;;;8.70;55.20;;;;;;5082043;28;20552;-87
2022/01/07 07:28:20;;;;;;;0.70;0.55;;;8.70;55.30;;;;;;5081087;28;20040;-86
2022/01/07 07:30:47;;;;;;;3.30;0.70;;;8.70;55.00;;;;;;5082761;28;20395;-86
2022/01/07 07:38:33;;;;;;;1.50;0.95;;;8.80;55.00;;;;;;5081416;28;20036;-84
2022/01/07 07:40:59;;;;;;;1.35;0.80;;;8.80;55.20;;;;;;5078798;28;20115;-84
2022/01/07 07:43:25;;;;;;;0.90;0.70;;;8.70;55.10;;;;;;5079841;28;20120;-82
2022/01/07 07:45:51;;;;;;;1.20;0.63;;;8.70;55.10;;;;;;5080251;28;20043;-84
2022/01/07 07:48:17;;;;;;;1.63;0.80;;;8.80;55.20;;;;;;5079370;28;20032;-84
2022/01/07 07:50:43;;;;;;;1.63;0.95;;;8.70;55.20;;;;;;5079948;28;20045;-84
2022/01/07 07:53:09;;;;;;;1.65;1.25;;;8.80;55.10;;;;;;5081078;28;20028;-82
2022/01/07 07:55:35;;;;;;;1.38;0.80;;;8.80;55.20;;;;;;5081138;28;20039;-82
2022/01/07 07:58:00;;;;;;;0.90;0.88;;;8.80;55.00;;;;;;5082242;28;20028;-84
2022/01/07 08:00:26;;;;;;;2.40;1.02;;;8.80;55.00;;;;;;5080507;28;20040;-83
2022/01/07 08:02:52;;;;;;;1.50;1.00;;;8.80;54.90;;;;;;5080688;28;20545;-84
2022/01/07 08:05:18;;;;;;;1.17;1.00;;;8.80;54.80;;;;;;5078407;28;20128;-83
2022/01/07 08:07:44;;;;;;;0.93;0.93;;;8.90;54.70;;;;;;5080483;28;20054;-83
2022/01/07 08:10:10;;;;;;;2.58;1.15;;;8.90;54.60;;;;;;5079979;28;20557;-84
2022/01/07 08:12:53;;;;;;;3.33;1.25;;;8.90;54.50;;;;;;5080168;28;20558;-85
2022/01/07 08:18:04;;;;;;;1.13;1.07;;;9.00;54.30;;;;;;5080165;28;20032;-85
2022/01/07 08:20:31;;;;;;;3.78;1.10;;;9.00;54.10;;;;;;5077190;28;20647;-86
2022/01/07 08:22:57;;;;;;;1.17;1.08;;;9.00;53.90;;;;;;5082200;28;20029;-84
2022/01/07 08:25:24;;;;;;;1.58;1.00;;;9.00;53.80;;;;;;5079402;28;20085;-85
2022/01/07 08:27:50;;;;;;;1.10;0.93;;;9.00;53.80;;;;;;5079503;28;20040;-85
2022/01/07 08:30:21;;;;;;;1.10;0.60;;;9.00;53.80;;;;;;5081194;28;20043;-83
2022/01/07 08:35:31;;;;;;;1.13;0.90;;;9.10;53.90;;;;;;5080757;28;20418;-85
2022/01/07 08:37:57;;;;;;;1.25;0.85;;;9.10;53.90;;;;;;5080163;28;20730;-83
2022/01/07 08:40:23;;;;;;;1.25;0.98;;;9.10;54.00;;;;;;5079392;28;20028;-85
2022/01/07 08:42:51;;;;;;;1.63;0.90;;;9.10;54.10;;;;;;5079022;28;20379;-85
2022/01/07 08:45:17;;;;;;;1.10;0.75;;;9.10;54.20;;;;;;5081107;28;20064;-85
2022/01/07 08:47:43;;;;;;;3.45;1.13;;;9.10;54.20;;;;;;5078679;28;20070;-83
2022/01/07 08:50:09;;;;;;;1.73;1.00;;;9.20;54.20;;;;;;5075221;28;20052;-83
2022/01/07 08:52:35;;;;;;;2.58;0.90;;;9.20;54.20;;;;;;5078325;28;20032;-84
2022/01/07 08:55:01;;;;;;;2.40;0.75;;;9.20;54.00;;;;;;5082300;28;20081;-89
2022/01/07 08:57:27;;;;;;;2.50;0.65;;;9.20;53.90;;;;;;5083593;28;20032;-91
2022/01/07 08:59:53;;;;;;;1.33;0.90;;;9.20;53.70;;;;;;5080812;28;20059;-94
2022/01/07 09:02:21;;;;;;;4.80;1.08;;;9.20;53.60;;;;;;5073225;28;20050;-89
2022/01/07 09:04:47;;;;;;;1.83;1.00;;;9.10;53.30;;;;;;5097379;28;20039;-94
2022/01/07 09:07:13;;;;;;;1.08;0.98;;;9.10;53.30;;;;;;5086950;28;20032;-94
2022/01/07 09:09:40;;;;;;;1.38;0.98;;;9.10;53.30;;;;;;5093494;28;20032;-87
2022/01/07 09:12:06;;;;;;;1.95;0.90;;;9.10;53.20;;;;;;5087922;28;20194;-95
2022/01/07 09:14:33;;;;;;;1.98;1.10;;;9.10;53.30;;;;;;5090291;28;20379;-92
2022/01/07 09:16:59;;;;;;;2.17;1.10;;;9.10;53.30;;;;;;5095585;28;20106;-94
2022/01/07 09:19:26;;;;;;;1.00;0.90;;;9.10;53.30;;;;;;5079012;28;20136;-91
2022/01/07 09:21:52;;;;;;;3.47;1.30;;;9.10;53.10;;;;;;5088712;28;20105;-89
2022/01/07 09:24:18;;;;;;;1.88;1.38;;;9.00;52.80;;;;;;5073226;28;20028;-88
2022/01/07 09:26:44;;;;;;;1.77;1.40;;;9.00;52.70;;;;;;5081327;28;20616;-90
2022/01/07 09:29:09;;;;;;;1.60;1.13;;;9.00;52.60;;;;;;5096737;28;20044;-86
2022/01/07 09:31:36;;;;;;;4.47;1.30;;;9.00;52.50;;;;;;5071507;28;20043;-91
2022/01/07 09:34:02;;;;;;;1.40;0.95;;;9.00;53.10;;;;;;5091488;28;20130;-91
2022/01/07 09:36:28;;;;;;;1.70;1.40;;;9.00;54.50;;;;;;5080261;28;20133;-88
2022/01/07 09:38:54;;;;;;;2.72;1.45;;;9.00;54.50;;;;;;5088484;28;20036;-88
2022/01/07 09:41:20;;;;;;;2.83;1.85;;;9.00;54.30;;;;;;5089322;28;20024;-91
2022/01/07 09:43:46;;;;;;;3.30;1.58;;;9.00;54.30;;;;;;5097234;28;20102;-86
2022/01/07 09:46:14;;;;;;;1.70;1.60;;;9.00;54.20;;;;;;5085769;28;20051;-86
2022/01/07 09:48:41;;;;;;;9.68;2.72;;;9.00;54.50;;;;;;5090856;28;20048;-91
2022/01/07 09:51:08;;;;;;;12.32;3.60;;;9.00;56.40;;;;;;5091458;28;20036;-87
2022/01/07 09:53:33;;;;;;;16.13;3.88;;;9.10;59.80;;;;;;5098012;28;20083;-87
2022/01/07 09:56:00;;;;;;;6.53;2.70;;;9.10;60.90;;;;;;5084176;28;20099;-91
2022/01/07 09:58:26;;;;;;;7.07;2.83;;;9.20;61.40;;;;;;5079191;28;20084;-92
2022/01/07 10:01:04;;;;;;;18.65;3.45;;;9.20;61.50;;;;;;5095337;28;20062;-92
2022/01/07 10:03:41;;;;;;;6.72;2.72;;;9.20;61.10;;;;;;5090661;28;20046;-91
2022/01/07 10:06:21;;;;;;;4.38;2.70;;;9.30;60.70;;;;;;5089678;28;20456;-95
2022/01/07 10:09:10;;;;;;;7.78;2.22;;;9.30;60.50;;;;;;5090131;28;20506;-93
2022/01/07 10:11:37;;;;;;;6.05;2.40;;;9.30;60.30;;;;;;5083810;28;20032;-88
2022/01/07 10:14:21;;;;;;;7.38;2.13;;;9.30;60.00;;;;;;5097773;28;20028;-94
2022/01/07 10:16:55;;;;;;;5.13;2.17;;;9.30;59.60;;;;;;5082562;28;20075;-94
2022/01/07 10:19:38;;;;;;;4.07;2.00;;;9.40;59.40;;;;;;5065530;28;20422;-93
2022/01/07 10:22:07;;;;;;;2.50;1.77;;;9.40;59.40;;;;;;5080363;28;20064;-92
2022/01/07 10:24:55;;;;;;;3.83;1.67;;;9.40;58.90;;;;;;5082067;28;20032;-94
2022/01/07 10:27:22;;;;;;;2.53;1.70;;;9.40;58.80;;;;;;5083531;28;20039;-94
2022/01/07 10:29:48;;;;;;;2.08;1.42;;;9.40;58.50;;;;;;5084027;28;20120;-93
2022/01/07 10:32:32;;;;;;;1.48;1.38;;;9.40;58.30;;;;;;5084315;28;20047;-94
2022/01/07 10:35:13;;;;;;;2.55;1.50;;;9.40;58.10;;;;;;5083934;28;20028;-91
2022/01/07 10:37:49;;;;;;;2.95;1.42;;;9.40;57.70;;;;;;5071353;28;20404;-94
2022/01/07 10:40:27;;;;;;;3.15;1.50;;;9.40;57.60;;;;;;5079982;28;20035;-89
2022/01/07 10:42:55;;;;;;;1.13;1.02;;;9.40;57.60;;;;;;5067900;28;20101;-94
2022/01/07 10:45:22;;;;;;;2.58;0.93;;;9.40;57.60;;;;;;5085951;28;20031;-93
2022/01/07 10:47:52;;;;;;;1.75;1.10;;;9.40;57.50;;;;;;5083809;28;20043;-94
2022/01/07 10:50:23;;;;;;;1.98;1.23;;;9.40;57.60;;;;;;5087273;28;20044;-93
2022/01/07 10:53:10;;;;;;;2.13;1.23;;;9.40;57.50;;;;;;5085149;28;20112;-94
2022/01/07 10:55:36;;;;;;;2.83;1.17;;;9.40;57.50;;;;;;5087115;28;22093;-89
2022/01/07 10:58:04;;;;;;;3.25;1.40;;;9.40;57.60;;;;;;5084489;28;20027;-94
2022/01/07 11:00:36;;;;;;;2.97;1.63;;;9.40;57.50;;;;;;5082194;28;20039;-94
2022/01/07 11:03:07;;;;;;;1.90;1.08;;;9.50;57.60;;;;;;5070378;28;20477;-92
2022/01/07 11:05:33;;;;;;;1.38;0.90;;;9.50;57.60;;;;;;5112786;27;20032;-92
2022/01/07 11:08:01;;;;;;;1.65;1.25;;;9.50;57.50;;;;;;5088461;28;20036;-92
2022/01/07 11:10:29;;;;;;;2.22;1.23;;;9.50;57.30;;;;;;5091106;28;20051;-93
2022/01/07 11:12:58;;;;;;;1.80;1.10;;;9.50;57.30;;;;;;5088485;28;21415;-86
2022/01/07 11:15:23;;;;;;;2.30;0.80;;;9.50;57.20;;;;;;5087082;28;20032;-92
2022/01/07 11:17:49;;;;;;;1.23;1.13;;;9.50;57.00;;;;;;5082938;28;20034;-94
2022/01/07 11:20:20;;;;;;;1.92;1.08;;;9.50;56.90;;;;;;5089231;28;20047;-91
2022/01/07 11:22:48;;;;;;;1.65;1.08;;;9.50;56.80;;;;;;5082536;28;20510;-94
2022/01/07 11:25:15;;;;;;;2.95;1.33;;;9.50;56.80;;;;;;5082898;28;20036;-93
2022/01/07 11:27:57;;;;;;;2.88;1.20;;;9.50;56.70;;;;;;5084792;28;20085;-93
2022/01/07 11:30:32;;;;;;;2.45;1.35;;;9.50;56.40;;;;;;5063747;28;20032;-93
2022/01/07 11:32:59;;;;;;;1.98;1.42;;;9.50;56.40;;;;;;5083878;28;20032;-91
2022/01/07 11:35:26;;;;;;;2.28;1.67;;;9.50;56.20;;;;;;5066542;28;20490;-93
2022/01/07 11:37:57;;;;;;;3.70;1.52;;;9.50;56.30;;;;;;5084603;28;20058;-91
2022/01/07 11:40:31;;;;;;;2.47;1.40;;;9.50;56.20;;;;;;5080516;28;20055;-94
2022/01/07 11:42:59;;;;;;;2.35;1.42;;;9.50;56.10;;;;;;5080649;28;20037;-90
2022/01/07 11:45:33;;;;;;;2.58;1.20;;;9.50;56.00;;;;;;5084325;28;20055;-92
2022/01/07 11:48:24;;;;;;;2.00;1.20;;;9.50;55.80;;;;;;5080254;28;20688;-93
2022/01/07 11:50:56;;;;;;;2.42;1.05;;;9.50;55.80;;;;;;5082458;28;20040;-93
2022/01/07 11:53:24;;;;;;;1.73;1.23;;;9.40;56.00;;;;;;5084325;28;20031;-93
2022/01/07 11:55:50;;;;;;;1.15;1.05;;;9.40;56.00;;;;;;5081537;28;20123;-93
2022/01/07 11:58:17;;;;;;;2.05;1.02;;;9.40;56.10;;;;;;5084399;28;20042;-87
2022/01/07 12:01:04;;;;;;;2.22;1.00;;;9.50;56.20;;;;;;5079833;28;20027;-92
2022/01/07 12:03:38;;;;;;;1.73;1.00;;;9.50;56.20;;;;;;5082113;28;20100;-92
2022/01/07 12:06:36;;;;;;;1.33;0.80;;;9.40;56.20;;;;;;5095534;28;20446;-94
2022/01/07 12:11:35;;;;;;;2.65;0.80;;;9.50;56.10;;;;;;5005757;28;20092;-94
2022/01/07 12:14:02;;;;;;;2.15;0.80;;;9.50;56.00;;;;;;4984782;28;20077;-94
2022/01/07 12:16:31;;;;;;;1.23;0.77;;;9.50;56.00;;;;;;5007496;28;20918;-94
2022/01/07 12:19:12;;;;;;;2.20;0.98;;;9.50;56.00;;;;;;5004005;28;20145;-93
2022/01/07 12:21:39;;;;;;;0.82;0.73;;;9.40;56.00;;;;;;5004915;28;20156;-92
2022/01/07 12:24:06;;;;;;;1.73;0.80;;;9.50;56.00;;;;;;4970080;28;20026;-91
2022/01/07 12:26:32;;;;;;;1.55;1.00;;;9.40;55.90;;;;;;5003929;28;20069;-94
2022/01/07 12:28:58;;;;;;;1.10;1.00;;;9.50;56.00;;;;;;4988202;28;20133;-93
2022/01/07 12:31:24;;;;;;;0.85;0.70;;;9.50;55.90;;;;;;5004327;28;20124;-91
2022/01/07 12:33:52;;;;;;;1.15;0.73;;;9.40;55.70;;;;;;5008438;28;20100;-94
2022/01/07 12:36:31;;;;;;;1.02;0.82;;;9.40;55.70;;;;;;4989048;28;20034;-93
2022/01/07 12:39:07;;;;;;;2.72;1.00;;;9.40;55.70;;;;;;5008854;28;20045;-91
2022/01/07 12:41:34;;;;;;;1.35;0.75;;;9.40;55.60;;;;;;5009167;28;20030;-92
2022/01/07 12:44:06;;;;;;;1.42;0.90;;;9.40;55.50;;;;;;5027361;28;20049;-90
2022/01/07 12:46:32;;;;;;;1.70;0.90;;;9.40;55.40;;;;;;5084611;28;20282;-91
2022/01/07 12:48:58;;;;;;;3.20;0.98;;;9.40;55.30;;;;;;5085617;28;20039;-89
2022/01/07 12:51:24;;;;;;;1.73;0.88;;;9.40;55.40;;;;;;5086494;28;20101;-91
2022/01/07 12:54:01;;;;;;;2.15;0.90;;;9.40;55.40;;;;;;5084710;28;20063;-94
2022/01/07 12:56:30;;;;;;;2.35;1.00;;;9.40;55.50;;;;;;5088476;28;20070;-95
2022/01/07 12:58:57;;;;;;;1.30;1.00;;;9.40;55.40;;;;;;5097427;28;20024;-87
2022/01/07 13:01:28;;;;;;;1.95;1.10;;;9.40;55.30;;;;;;5099595;28;20062;-92
2022/01/07 13:04:11;;;;;;;1.50;1.20;;;9.40;55.30;;;;;;5095574;28;20031;-92
2022/01/07 13:06:57;;;;;;;2.03;1.00;;;9.40;55.40;;;;;;5092985;28;20473;-86
2022/01/07 13:09:28;;;;;;;;;;;9.40;55.60;;;;;;5087416;28;20039;-93
2022/01/07 13:11:58;;;;;;;1.45;0.80;;;9.40;55.70;;;;;;5088485;28;19912;-95
2022/01/07 13:14:29;;;;;;;1.23;0.77;;;9.40;55.70;;;;;;5105570;28;20048;-90
2022/01/07 13:16:59;;;;;;;1.40;0.98;;;9.40;55.60;;;;;;5097154;28;20048;-92